Contact

Aéroclub Loudunais


Bellevue
86200 Loudun
E-mail : contact@aeroclubloudun.fr
: 05-49-98-12-81

Webcam :

Nuit aéronautique

21 Jan 2019

Heure locale,
pour LFDL uniquement.

Lever du soleil aéronautique :08:07
Lever du soleil :08:37
Coucher du soleil :17:44
Coucher du soleil aéronautique :18:14

Metar

LFBI :
2019/01/21 00:30
LFBI 210030Z AUTO 02008KT 9999 OVC017 04/01 Q1020 TEMPO OVC005
LFBI :
Poitiers, France (LFBI) 46-35N 000-19E 120M
Jan 20, 2019 - 07:30 PM EST / 2019.01.21 0030 UTC
Wind: from the NNE (020 degrees) at 9 MPH (8 KT):0
Visibility: greater than 7 mile(s):0
Sky conditions: overcast
Temperature: 39 F (4 C)
Dew Point: 33 F (1 C)
Relative Humidity: 80%
Pressure (altimeter): 30.12 in. Hg (1020 hPa)
ob: LFBI 210030Z AUTO 02008KT 9999 OVC017 04/01 Q1020 TEMPO OVC005
cycle: 0

Afficher le metar d'une autre station :
Code OACI :

Aéroclub de Loudun


Bellevue
86200 Loudun


Contacter Michel Richez (président)

  • Mail:michel.richez@free.fr
  • Tel:09-50-38-02-06
  • Mobile:06-52-73-09-01



agrandir le plan

Newsletter

Mon e-mail :